sensor_id;sensor_type;location;lat;lon;timestamp;P1;durP1;ratioP1;P2;durP2;ratioP2
3841;SDS011;1936;47.074;15.336;2024-02-28T00:01:56;8.03;;;5.70;;
3841;SDS011;1936;47.074;15.336;2024-02-28T00:03:59;7.30;;;6.50;;
3841;SDS011;1936;47.074;15.336;2024-02-28T00:06:03;8.07;;;5.97;;
3841;SDS011;1936;47.074;15.336;2024-02-28T00:08:08;12.30;;;7.23;;
3841;SDS011;1936;47.074;15.336;2024-02-28T00:10:11;11.70;;;6.80;;
3841;SDS011;1936;47.074;15.336;2024-02-28T00:12:14;8.40;;;6.80;;
3841;SDS011;1936;47.074;15.336;2024-02-28T00:14:18;9.47;;;7.53;;
3841;SDS011;1936;47.074;15.336;2024-02-28T00:16:21;7.80;;;6.77;;
3841;SDS011;1936;47.074;15.336;2024-02-28T00:18:24;7.40;;;5.90;;
3841;SDS011;1936;47.074;15.336;2024-02-28T00:20:27;10.07;;;6.27;;
3841;SDS011;1936;47.074;15.336;2024-02-28T00:22:31;8.37;;;6.80;;
3841;SDS011;1936;47.074;15.336;2024-02-28T00:24:36;9.03;;;6.63;;
3841;SDS011;1936;47.074;15.336;2024-02-28T00:26:40;8.83;;;7.27;;
3841;SDS011;1936;47.074;15.336;2024-02-28T00:28:44;11.57;;;6.40;;
3841;SDS011;1936;47.074;15.336;2024-02-28T00:30:47;7.57;;;6.60;;
3841;SDS011;1936;47.074;15.336;2024-02-28T00:32:51;11.97;;;6.90;;
3841;SDS011;1936;47.074;15.336;2024-02-28T00:34:54;7.53;;;5.70;;
3841;SDS011;1936;47.074;15.336;2024-02-28T00:36:57;9.20;;;7.00;;
3841;SDS011;1936;47.074;15.336;2024-02-28T00:39:00;12.20;;;6.17;;
3841;SDS011;1936;47.074;15.336;2024-02-28T00:41:05;6.70;;;5.80;;
3841;SDS011;1936;47.074;15.336;2024-02-28T00:43:08;6.83;;;5.57;;
3841;SDS011;1936;47.074;15.336;2024-02-28T00:45:11;8.73;;;6.73;;
3841;SDS011;1936;47.074;15.336;2024-02-28T00:47:15;9.80;;;6.53;;
3841;SDS011;1936;47.074;15.336;2024-02-28T00:49:18;9.60;;;6.03;;
3841;SDS011;1936;47.074;15.336;2024-02-28T00:51:22;10.57;;;6.57;;
3841;SDS011;1936;47.074;15.336;2024-02-28T00:53:25;9.33;;;6.63;;
3841;SDS011;1936;47.074;15.336;2024-02-28T00:55:29;14.40;;;7.00;;
3841;SDS011;1936;47.074;15.336;2024-02-28T00:57:34;10.50;;;5.95;;
3841;SDS011;1936;47.074;15.336;2024-02-28T00:59:37;8.98;;;7.00;;
3841;SDS011;1936;47.074;15.336;2024-02-28T01:01:41;15.13;;;9.00;;
3841;SDS011;1936;47.074;15.336;2024-02-28T01:03:45;9.25;;;6.95;;
3841;SDS011;1936;47.074;15.336;2024-02-28T01:05:48;10.17;;;6.60;;
3841;SDS011;1936;47.074;15.336;2024-02-28T01:07:52;7.57;;;6.23;;
3841;SDS011;1936;47.074;15.336;2024-02-28T01:09:55;9.10;;;7.17;;
3841;SDS011;1936;47.074;15.336;2024-02-28T01:11:58;9.60;;;6.72;;
3841;SDS011;1936;47.074;15.336;2024-02-28T01:14:03;10.30;;;7.27;;
3841;SDS011;1936;47.074;15.336;2024-02-28T01:16:07;7.63;;;6.00;;
3841;SDS011;1936;47.074;15.336;2024-02-28T01:18:10;15.80;;;6.10;;
3841;SDS011;1936;47.074;15.336;2024-02-28T01:20:13;8.80;;;7.00;;
3841;SDS011;1936;47.074;15.336;2024-02-28T01:22:17;10.60;;;7.10;;
3841;SDS011;1936;47.074;15.336;2024-02-28T01:24:21;10.67;;;7.00;;
3841;SDS011;1936;47.074;15.336;2024-02-28T01:26:24;7.00;;;6.30;;
3841;SDS011;1936;47.074;15.336;2024-02-28T01:28:28;6.25;;;5.65;;
3841;SDS011;1936;47.074;15.336;2024-02-28T01:30:33;9.40;;;6.80;;
3841;SDS011;1936;47.074;15.336;2024-02-28T01:32:36;8.00;;;6.50;;
3841;SDS011;1936;47.074;15.336;2024-02-28T01:34:40;6.93;;;6.22;;
3841;SDS011;1936;47.074;15.336;2024-02-28T01:36:43;7.50;;;6.57;;
3841;SDS011;1936;47.074;15.336;2024-02-28T01:38:47;7.85;;;6.72;;
3841;SDS011;1936;47.074;15.336;2024-02-28T01:40:49;12.10;;;8.00;;
3841;SDS011;1936;47.074;15.336;2024-02-28T01:42:52;9.15;;;7.70;;
3841;SDS011;1936;47.074;15.336;2024-02-28T01:44:56;8.55;;;6.85;;
3841;SDS011;1936;47.074;15.336;2024-02-28T01:47:01;11.82;;;7.75;;
3841;SDS011;1936;47.074;15.336;2024-02-28T01:49:04;13.20;;;7.30;;
3841;SDS011;1936;47.074;15.336;2024-02-28T01:51:08;9.32;;;7.70;;
3841;SDS011;1936;47.074;15.336;2024-02-28T01:53:12;10.55;;;7.13;;
3841;SDS011;1936;47.074;15.336;2024-02-28T01:55:20;8.80;;;7.10;;
3841;SDS011;1936;47.074;15.336;2024-02-28T01:57:23;9.07;;;7.03;;
3841;SDS011;1936;47.074;15.336;2024-02-28T01:59:28;8.82;;;7.75;;
3841;SDS011;1936;47.074;15.336;2024-02-28T02:01:33;10.38;;;8.38;;
3841;SDS011;1936;47.074;15.336;2024-02-28T02:03:37;8.13;;;7.32;;
3841;SDS011;1936;47.074;15.336;2024-02-28T02:05:41;11.45;;;8.23;;
3841;SDS011;1936;47.074;15.336;2024-02-28T02:07:45;10.05;;;9.05;;
3841;SDS011;1936;47.074;15.336;2024-02-28T02:09:49;10.07;;;8.30;;
3841;SDS011;1936;47.074;15.336;2024-02-28T02:11:54;11.18;;;9.52;;
3841;SDS011;1936;47.074;15.336;2024-02-28T02:13:57;9.15;;;7.03;;
3841;SDS011;1936;47.074;15.336;2024-02-28T02:16:01;10.65;;;9.10;;
3841;SDS011;1936;47.074;15.336;2024-02-28T02:18:04;9.18;;;8.38;;
3841;SDS011;1936;47.074;15.336;2024-02-28T02:20:11;13.20;;;8.80;;
3841;SDS011;1936;47.074;15.336;2024-02-28T02:22:16;14.05;;;8.88;;
3841;SDS011;1936;47.074;15.336;2024-02-28T02:24:22;14.95;;;8.05;;
3841;SDS011;1936;47.074;15.336;2024-02-28T02:26:26;13.25;;;8.30;;
3841;SDS011;1936;47.074;15.336;2024-02-28T02:28:29;8.63;;;7.72;;
3841;SDS011;1936;47.074;15.336;2024-02-28T02:30:32;11.80;;;7.68;;
3841;SDS011;1936;47.074;15.336;2024-02-28T02:32:35;9.43;;;8.10;;
3841;SDS011;1936;47.074;15.336;2024-02-28T02:34:39;16.30;;;8.50;;
3841;SDS011;1936;47.074;15.336;2024-02-28T02:36:42;13.88;;;7.88;;
3841;SDS011;1936;47.074;15.336;2024-02-28T02:38:45;13.38;;;8.40;;
3841;SDS011;1936;47.074;15.336;2024-02-28T02:40:50;10.70;;;8.05;;
3841;SDS011;1936;47.074;15.336;2024-02-28T02:42:53;9.45;;;7.47;;
3841;SDS011;1936;47.074;15.336;2024-02-28T02:44:56;9.35;;;7.60;;
3841;SDS011;1936;47.074;15.336;2024-02-28T02:46:59;8.82;;;7.18;;
3841;SDS011;1936;47.074;15.336;2024-02-28T02:49:02;8.60;;;7.70;;
3841;SDS011;1936;47.074;15.336;2024-02-28T02:51:05;8.50;;;7.60;;
3841;SDS011;1936;47.074;15.336;2024-02-28T02:53:09;19.65;;;8.82;;
3841;SDS011;1936;47.074;15.336;2024-02-28T02:55:12;12.45;;;7.88;;
3841;SDS011;1936;47.074;15.336;2024-02-28T02:57:18;8.15;;;7.40;;
3841;SDS011;1936;47.074;15.336;2024-02-28T02:59:21;7.43;;;6.50;;
3841;SDS011;1936;47.074;15.336;2024-02-28T03:01:24;11.27;;;7.25;;
3841;SDS011;1936;47.074;15.336;2024-02-28T03:03:28;11.20;;;8.20;;
3841;SDS011;1936;47.074;15.336;2024-02-28T03:05:32;13.20;;;8.20;;
3841;SDS011;1936;47.074;15.336;2024-02-28T03:07:35;9.32;;;7.78;;
3841;SDS011;1936;47.074;15.336;2024-02-28T03:09:38;10.15;;;8.80;;
3841;SDS011;1936;47.074;15.336;2024-02-28T03:11:41;9.88;;;8.80;;
3841;SDS011;1936;47.074;15.336;2024-02-28T03:13:46;12.40;;;10.55;;
3841;SDS011;1936;47.074;15.336;2024-02-28T03:15:50;10.38;;;9.10;;
3841;SDS011;1936;47.074;15.336;2024-02-28T03:17:54;12.77;;;9.75;;
3841;SDS011;1936;47.074;15.336;2024-02-28T03:19:56;9.68;;;7.70;;
3841;SDS011;1936;47.074;15.336;2024-02-28T03:21:59;20.73;;;7.63;;
3841;SDS011;1936;47.074;15.336;2024-02-28T03:24:04;7.68;;;6.57;;
3841;SDS011;1936;47.074;15.336;2024-02-28T03:26:08;8.57;;;6.60;;
3841;SDS011;1936;47.074;15.336;2024-02-28T03:28:11;8.25;;;7.43;;
3841;SDS011;1936;47.074;15.336;2024-02-28T03:30:16;10.40;;;7.32;;
3841;SDS011;1936;47.074;15.336;2024-02-28T03:32:20;11.13;;;8.68;;
3841;SDS011;1936;47.074;15.336;2024-02-28T03:34:24;9.30;;;7.60;;
3841;SDS011;1936;47.074;15.336;2024-02-28T03:36:28;7.97;;;7.03;;
3841;SDS011;1936;47.074;15.336;2024-02-28T03:38:31;13.95;;;7.47;;
3841;SDS011;1936;47.074;15.336;2024-02-28T03:40:35;10.48;;;6.63;;
3841;SDS011;1936;47.074;15.336;2024-02-28T03:42:38;6.60;;;5.45;;
3841;SDS011;1936;47.074;15.336;2024-02-28T03:44:41;9.80;;;6.45;;
3841;SDS011;1936;47.074;15.336;2024-02-28T03:46:46;6.80;;;5.57;;
3841;SDS011;1936;47.074;15.336;2024-02-28T03:48:49;10.10;;;8.95;;
3841;SDS011;1936;47.074;15.336;2024-02-28T03:50:52;12.60;;;5.90;;
3841;SDS011;1936;47.074;15.336;2024-02-28T03:52:55;10.30;;;7.43;;
3841;SDS011;1936;47.074;15.336;2024-02-28T03:54:57;13.82;;;9.52;;
3841;SDS011;1936;47.074;15.336;2024-02-28T03:57:01;16.48;;;9.05;;
3841;SDS011;1936;47.074;15.336;2024-02-28T03:59:03;13.60;;;9.20;;
3841;SDS011;1936;47.074;15.336;2024-02-28T04:01:06;13.23;;;9.85;;
3841;SDS011;1936;47.074;15.336;2024-02-28T04:03:11;16.40;;;8.68;;
3841;SDS011;1936;47.074;15.336;2024-02-28T04:05:16;10.25;;;7.80;;
3841;SDS011;1936;47.074;15.336;2024-02-28T04:07:19;16.80;;;10.27;;
3841;SDS011;1936;47.074;15.336;2024-02-28T04:09:23;9.45;;;7.57;;
3841;SDS011;1936;47.074;15.336;2024-02-28T04:11:25;10.75;;;8.20;;
3841;SDS011;1936;47.074;15.336;2024-02-28T04:13:29;10.20;;;6.63;;
3841;SDS011;1936;47.074;15.336;2024-02-28T04:15:32;7.20;;;6.43;;
3841;SDS011;1936;47.074;15.336;2024-02-28T04:17:36;7.38;;;6.68;;
3841;SDS011;1936;47.074;15.336;2024-02-28T04:19:41;10.48;;;6.25;;
3841;SDS011;1936;47.074;15.336;2024-02-28T04:21:44;7.82;;;5.68;;
3841;SDS011;1936;47.074;15.336;2024-02-28T04:23:47;9.18;;;6.10;;
3841;SDS011;1936;47.074;15.336;2024-02-28T04:25:51;6.35;;;5.32;;
3841;SDS011;1936;47.074;15.336;2024-02-28T04:27:54;8.50;;;4.78;;
3841;SDS011;1936;47.074;15.336;2024-02-28T04:29:58;10.35;;;5.38;;
3841;SDS011;1936;47.074;15.336;2024-02-28T04:32:02;13.88;;;5.00;;
3841;SDS011;1936;47.074;15.336;2024-02-28T04:34:05;6.30;;;4.90;;
3841;SDS011;1936;47.074;15.336;2024-02-28T04:36:10;7.85;;;4.93;;
3841;SDS011;1936;47.074;15.336;2024-02-28T04:38:13;8.02;;;5.80;;
3841;SDS011;1936;47.074;15.336;2024-02-28T04:40:17;7.68;;;4.93;;
3841;SDS011;1936;47.074;15.336;2024-02-28T04:42:19;4.90;;;4.45;;
3841;SDS011;1936;47.074;15.336;2024-02-28T04:44:23;8.18;;;4.40;;
3841;SDS011;1936;47.074;15.336;2024-02-28T04:46:25;4.22;;;3.80;;
3841;SDS011;1936;47.074;15.336;2024-02-28T04:48:29;7.47;;;4.30;;
3841;SDS011;1936;47.074;15.336;2024-02-28T04:50:33;6.40;;;3.58;;
3841;SDS011;1936;47.074;15.336;2024-02-28T04:52:38;7.30;;;4.53;;
3841;SDS011;1936;47.074;15.336;2024-02-28T04:54:41;6.32;;;4.65;;
3841;SDS011;1936;47.074;15.336;2024-02-28T04:56:45;6.22;;;5.10;;
3841;SDS011;1936;47.074;15.336;2024-02-28T04:58:48;5.82;;;5.10;;
3841;SDS011;1936;47.074;15.336;2024-02-28T05:00:52;9.45;;;5.90;;
3841;SDS011;1936;47.074;15.336;2024-02-28T05:02:55;5.88;;;5.38;;
3841;SDS011;1936;47.074;15.336;2024-02-28T05:04:59;8.55;;;5.28;;
3841;SDS011;1936;47.074;15.336;2024-02-28T05:07:02;6.45;;;4.68;;
3841;SDS011;1936;47.074;15.336;2024-02-28T05:09:11;7.10;;;4.85;;
3841;SDS011;1936;47.074;15.336;2024-02-28T05:11:14;5.80;;;4.93;;
3841;SDS011;1936;47.074;15.336;2024-02-28T05:13:18;5.25;;;4.75;;
3841;SDS011;1936;47.074;15.336;2024-02-28T05:15:23;7.25;;;6.00;;
3841;SDS011;1936;47.074;15.336;2024-02-28T05:17:27;13.50;;;9.18;;
3841;SDS011;1936;47.074;15.336;2024-02-28T05:19:30;22.23;;;11.93;;
3841;SDS011;1936;47.074;15.336;2024-02-28T05:21:39;18.20;;;10.18;;
3841;SDS011;1936;47.074;15.336;2024-02-28T05:23:43;23.63;;;14.40;;
3841;SDS011;1936;47.074;15.336;2024-02-28T05:25:48;22.55;;;14.70;;
3841;SDS011;1936;47.074;15.336;2024-02-28T05:27:51;22.80;;;13.70;;
3841;SDS011;1936;47.074;15.336;2024-02-28T05:29:55;15.90;;;11.63;;
3841;SDS011;1936;47.074;15.336;2024-02-28T05:31:57;20.55;;;11.95;;
3841;SDS011;1936;47.074;15.336;2024-02-28T05:34:01;8.35;;;5.72;;
3841;SDS011;1936;47.074;15.336;2024-02-28T05:36:05;6.65;;;5.25;;
3841;SDS011;1936;47.074;15.336;2024-02-28T05:38:09;8.98;;;5.75;;
3841;SDS011;1936;47.074;15.336;2024-02-28T05:40:12;12.15;;;6.05;;
3841;SDS011;1936;47.074;15.336;2024-02-28T05:42:17;7.20;;;5.00;;
3841;SDS011;1936;47.074;15.336;2024-02-28T05:44:23;5.88;;;4.72;;
3841;SDS011;1936;47.074;15.336;2024-02-28T05:46:27;7.00;;;4.93;;
3841;SDS011;1936;47.074;15.336;2024-02-28T05:48:31;7.40;;;6.15;;
3841;SDS011;1936;47.074;15.336;2024-02-28T05:50:33;10.63;;;7.07;;
3841;SDS011;1936;47.074;15.336;2024-02-28T05:52:37;7.82;;;6.25;;
3841;SDS011;1936;47.074;15.336;2024-02-28T05:54:40;6.10;;;4.60;;
3841;SDS011;1936;47.074;15.336;2024-02-28T05:56:44;8.60;;;5.93;;
3841;SDS011;1936;47.074;15.336;2024-02-28T05:58:48;7.13;;;6.32;;
3841;SDS011;1936;47.074;15.336;2024-02-28T06:00:52;8.70;;;6.18;;
3841;SDS011;1936;47.074;15.336;2024-02-28T06:02:55;8.13;;;5.20;;
3841;SDS011;1936;47.074;15.336;2024-02-28T06:04:59;5.55;;;4.65;;
3841;SDS011;1936;47.074;15.336;2024-02-28T06:07:02;6.97;;;5.07;;
3841;SDS011;1936;47.074;15.336;2024-02-28T06:09:07;7.10;;;4.80;;
3841;SDS011;1936;47.074;15.336;2024-02-28T06:11:09;5.95;;;5.13;;
3841;SDS011;1936;47.074;15.336;2024-02-28T06:13:13;6.07;;;5.47;;
3841;SDS011;1936;47.074;15.336;2024-02-28T06:15:18;6.20;;;5.35;;
3841;SDS011;1936;47.074;15.336;2024-02-28T06:17:21;6.70;;;5.65;;
3841;SDS011;1936;47.074;15.336;2024-02-28T06:19:25;7.80;;;6.30;;
3841;SDS011;1936;47.074;15.336;2024-02-28T06:21:28;5.82;;;4.88;;
3841;SDS011;1936;47.074;15.336;2024-02-28T06:23:31;5.95;;;5.03;;
3841;SDS011;1936;47.074;15.336;2024-02-28T06:25:35;8.52;;;4.90;;
3841;SDS011;1936;47.074;15.336;2024-02-28T06:27:37;6.95;;;4.78;;
3841;SDS011;1936;47.074;15.336;2024-02-28T06:29:41;6.50;;;5.10;;
3841;SDS011;1936;47.074;15.336;2024-02-28T06:31:49;8.52;;;5.32;;
3841;SDS011;1936;47.074;15.336;2024-02-28T06:33:53;9.13;;;6.32;;
3841;SDS011;1936;47.074;15.336;2024-02-28T06:35:56;6.72;;;5.30;;
3841;SDS011;1936;47.074;15.336;2024-02-28T06:38:00;6.07;;;5.47;;
3841;SDS011;1936;47.074;15.336;2024-02-28T06:40:04;6.10;;;5.30;;
3841;SDS011;1936;47.074;15.336;2024-02-28T06:42:08;8.48;;;5.10;;
3841;SDS011;1936;47.074;15.336;2024-02-28T06:44:12;10.43;;;6.65;;
3841;SDS011;1936;47.074;15.336;2024-02-28T06:46:15;5.45;;;4.93;;
3841;SDS011;1936;47.074;15.336;2024-02-28T06:48:20;9.25;;;5.43;;
3841;SDS011;1936;47.074;15.336;2024-02-28T06:50:24;6.47;;;5.10;;
3841;SDS011;1936;47.074;15.336;2024-02-28T06:52:27;5.90;;;5.30;;
3841;SDS011;1936;47.074;15.336;2024-02-28T06:54:30;12.13;;;9.20;;
3841;SDS011;1936;47.074;15.336;2024-02-28T06:56:34;10.60;;;8.73;;
3841;SDS011;1936;47.074;15.336;2024-02-28T06:58:37;18.52;;;11.60;;
3841;SDS011;1936;47.074;15.336;2024-02-28T07:00:41;7.25;;;6.55;;
3841;SDS011;1936;47.074;15.336;2024-02-28T07:02:44;8.17;;;5.33;;
3841;SDS011;1936;47.074;15.336;2024-02-28T07:04:49;16.30;;;12.77;;
3841;SDS011;1936;47.074;15.336;2024-02-28T07:06:51;20.70;;;12.43;;
3841;SDS011;1936;47.074;15.336;2024-02-28T07:08:55;11.63;;;8.60;;
3841;SDS011;1936;47.074;15.336;2024-02-28T07:10:58;17.27;;;8.97;;
3841;SDS011;1936;47.074;15.336;2024-02-28T07:13:03;10.83;;;7.57;;
3841;SDS011;1936;47.074;15.336;2024-02-28T07:15:05;11.23;;;8.57;;
3841;SDS011;1936;47.074;15.336;2024-02-28T07:17:09;78.37;;;32.00;;
3841;SDS011;1936;47.074;15.336;2024-02-28T07:19:12;9.67;;;5.10;;
3841;SDS011;1936;47.074;15.336;2024-02-28T07:21:17;6.47;;;4.13;;
3841;SDS011;1936;47.074;15.336;2024-02-28T07:23:21;5.97;;;4.13;;
3841;SDS011;1936;47.074;15.336;2024-02-28T07:25:24;4.80;;;3.00;;
3841;SDS011;1936;47.074;15.336;2024-02-28T07:27:27;5.53;;;4.13;;
3841;SDS011;1936;47.074;15.336;2024-02-28T07:29:30;4.60;;;3.20;;
3841;SDS011;1936;47.074;15.336;2024-02-28T07:31:33;6.53;;;3.83;;
3841;SDS011;1936;47.074;15.336;2024-02-28T07:33:37;5.83;;;3.37;;
3841;SDS011;1936;47.074;15.336;2024-02-28T07:35:45;7.70;;;3.20;;
3841;SDS011;1936;47.074;15.336;2024-02-28T07:37:50;3.13;;;2.93;;
3841;SDS011;1936;47.074;15.336;2024-02-28T07:39:54;7.73;;;3.50;;
3841;SDS011;1936;47.074;15.336;2024-02-28T07:41:57;4.17;;;3.07;;
3841;SDS011;1936;47.074;15.336;2024-02-28T07:44:00;3.30;;;2.97;;
3841;SDS011;1936;47.074;15.336;2024-02-28T07:46:06;8.80;;;3.50;;
3841;SDS011;1936;47.074;15.336;2024-02-28T07:48:10;6.30;;;3.00;;
3841;SDS011;1936;47.074;15.336;2024-02-28T07:50:14;8.43;;;2.83;;
3841;SDS011;1936;47.074;15.336;2024-02-28T07:52:17;4.23;;;2.97;;
3841;SDS011;1936;47.074;15.336;2024-02-28T07:54:22;4.27;;;3.67;;
3841;SDS011;1936;47.074;15.336;2024-02-28T07:56:26;3.60;;;3.30;;
3841;SDS011;1936;47.074;15.336;2024-02-28T07:58:29;5.43;;;4.27;;
3841;SDS011;1936;47.074;15.336;2024-02-28T08:00:32;6.33;;;3.70;;
3841;SDS011;1936;47.074;15.336;2024-02-28T08:02:37;2.90;;;2.70;;
3841;SDS011;1936;47.074;15.336;2024-02-28T08:04:42;6.47;;;3.27;;
3841;SDS011;1936;47.074;15.336;2024-02-28T08:06:45;3.83;;;3.30;;
3841;SDS011;1936;47.074;15.336;2024-02-28T08:08:48;4.37;;;2.63;;
3841;SDS011;1936;47.074;15.336;2024-02-28T08:10:53;3.33;;;2.47;;
3841;SDS011;1936;47.074;15.336;2024-02-28T08:12:57;3.40;;;2.90;;
3841;SDS011;1936;47.074;15.336;2024-02-28T08:15:01;2.97;;;2.60;;
3841;SDS011;1936;47.074;15.336;2024-02-28T08:17:04;4.60;;;2.50;;
3841;SDS011;1936;47.074;15.336;2024-02-28T08:19:07;2.90;;;2.30;;
3841;SDS011;1936;47.074;15.336;2024-02-28T08:21:10;3.10;;;2.80;;
3841;SDS011;1936;47.074;15.336;2024-02-28T08:23:14;4.73;;;3.13;;
3841;SDS011;1936;47.074;15.336;2024-02-28T08:25:17;9.63;;;3.13;;
3841;SDS011;1936;47.074;15.336;2024-02-28T08:27:22;2.90;;;2.60;;
3841;SDS011;1936;47.074;15.336;2024-02-28T08:29:26;4.50;;;3.67;;
3841;SDS011;1936;47.074;15.336;2024-02-28T08:31:30;6.03;;;3.00;;
3841;SDS011;1936;47.074;15.336;2024-02-28T08:33:33;5.53;;;3.03;;
3841;SDS011;1936;47.074;15.336;2024-02-28T08:35:35;8.30;;;3.17;;
3841;SDS011;1936;47.074;15.336;2024-02-28T08:37:39;3.60;;;3.13;;
3841;SDS011;1936;47.074;15.336;2024-02-28T08:39:43;4.77;;;4.00;;
3841;SDS011;1936;47.074;15.336;2024-02-28T08:41:46;5.03;;;3.03;;
3841;SDS011;1936;47.074;15.336;2024-02-28T08:43:51;5.33;;;3.57;;
3841;SDS011;1936;47.074;15.336;2024-02-28T08:45:54;3.83;;;3.00;;
3841;SDS011;1936;47.074;15.336;2024-02-28T08:47:58;4.07;;;2.97;;
3841;SDS011;1936;47.074;15.336;2024-02-28T08:50:03;4.13;;;3.20;;
3841;SDS011;1936;47.074;15.336;2024-02-28T08:52:07;3.80;;;2.10;;
3841;SDS011;1936;47.074;15.336;2024-02-28T08:54:10;5.43;;;2.47;;
3841;SDS011;1936;47.074;15.336;2024-02-28T08:56:13;4.07;;;2.30;;
3841;SDS011;1936;47.074;15.336;2024-02-28T08:58:16;4.37;;;2.60;;
3841;SDS011;1936;47.074;15.336;2024-02-28T09:00:21;5.60;;;2.63;;
3841;SDS011;1936;47.074;15.336;2024-02-28T09:02:25;4.50;;;2.80;;
3841;SDS011;1936;47.074;15.336;2024-02-28T09:04:28;3.30;;;2.40;;
3841;SDS011;1936;47.074;15.336;2024-02-28T09:06:32;3.50;;;2.53;;
3841;SDS011;1936;47.074;15.336;2024-02-28T09:08:35;3.80;;;2.73;;
3841;SDS011;1936;47.074;15.336;2024-02-28T09:10:38;8.40;;;2.57;;
3841;SDS011;1936;47.074;15.336;2024-02-28T09:12:42;3.60;;;2.60;;
3841;SDS011;1936;47.074;15.336;2024-02-28T09:14:46;3.97;;;2.80;;
3841;SDS011;1936;47.074;15.336;2024-02-28T09:16:57;3.13;;;2.40;;
3841;SDS011;1936;47.074;15.336;2024-02-28T09:19:05;2.90;;;2.50;;
3841;SDS011;1936;47.074;15.336;2024-02-28T09:21:08;5.20;;;2.83;;
3841;SDS011;1936;47.074;15.336;2024-02-28T09:23:11;4.23;;;3.10;;
3841;SDS011;1936;47.074;15.336;2024-02-28T09:25:15;3.83;;;2.23;;
3841;SDS011;1936;47.074;15.336;2024-02-28T09:27:19;3.03;;;2.17;;
3841;SDS011;1936;47.074;15.336;2024-02-28T09:29:23;5.73;;;3.00;;
3841;SDS011;1936;47.074;15.336;2024-02-28T09:31:26;3.13;;;2.30;;
3841;SDS011;1936;47.074;15.336;2024-02-28T09:33:31;3.43;;;2.33;;
3841;SDS011;1936;47.074;15.336;2024-02-28T09:35:34;5.23;;;2.87;;
3841;SDS011;1936;47.074;15.336;2024-02-28T09:37:37;5.30;;;2.57;;
3841;SDS011;1936;47.074;15.336;2024-02-28T09:39:41;2.87;;;2.50;;
3841;SDS011;1936;47.074;15.336;2024-02-28T09:41:46;3.23;;;2.20;;
3841;SDS011;1936;47.074;15.336;2024-02-28T09:43:51;4.57;;;3.20;;
3841;SDS011;1936;47.074;15.336;2024-02-28T09:45:55;6.00;;;2.80;;
3841;SDS011;1936;47.074;15.336;2024-02-28T09:48:02;6.50;;;2.80;;
3841;SDS011;1936;47.074;15.336;2024-02-28T09:50:08;4.33;;;2.43;;
3841;SDS011;1936;47.074;15.336;2024-02-28T09:52:12;4.13;;;2.30;;
3841;SDS011;1936;47.074;15.336;2024-02-28T09:54:17;2.83;;;2.10;;
3841;SDS011;1936;47.074;15.336;2024-02-28T09:56:20;3.53;;;2.57;;
3841;SDS011;1936;47.074;15.336;2024-02-28T09:58:26;2.03;;;1.80;;
3841;SDS011;1936;47.074;15.336;2024-02-28T10:00:30;3.80;;;2.43;;
3841;SDS011;1936;47.074;15.336;2024-02-28T10:02:35;4.67;;;1.80;;
3841;SDS011;1936;47.074;15.336;2024-02-28T10:04:41;4.00;;;2.47;;
3841;SDS011;1936;47.074;15.336;2024-02-28T10:06:47;3.53;;;2.30;;
3841;SDS011;1936;47.074;15.336;2024-02-28T10:08:51;3.80;;;1.73;;
3841;SDS011;1936;47.074;15.336;2024-02-28T10:10:55;2.23;;;2.00;;
3841;SDS011;1936;47.074;15.336;2024-02-28T10:13:00;2.70;;;2.30;;
3841;SDS011;1936;47.074;15.336;2024-02-28T10:15:04;4.17;;;2.10;;
3841;SDS011;1936;47.074;15.336;2024-02-28T10:17:08;5.43;;;1.87;;
3841;SDS011;1936;47.074;15.336;2024-02-28T10:19:11;3.10;;;2.17;;
3841;SDS011;1936;47.074;15.336;2024-02-28T10:21:14;3.50;;;1.90;;
3841;SDS011;1936;47.074;15.336;2024-02-28T10:23:19;4.10;;;2.20;;
3841;SDS011;1936;47.074;15.336;2024-02-28T10:25:23;2.63;;;1.70;;
3841;SDS011;1936;47.074;15.336;2024-02-28T10:27:25;4.90;;;2.17;;
3841;SDS011;1936;47.074;15.336;2024-02-28T10:29:29;4.03;;;2.10;;
3841;SDS011;1936;47.074;15.336;2024-02-28T10:31:34;3.63;;;2.60;;
3841;SDS011;1936;47.074;15.336;2024-02-28T10:33:37;4.63;;;2.50;;
3841;SDS011;1936;47.074;15.336;2024-02-28T10:35:40;5.80;;;2.87;;
3841;SDS011;1936;47.074;15.336;2024-02-28T10:37:45;4.23;;;2.50;;
3841;SDS011;1936;47.074;15.336;2024-02-28T10:39:51;2.50;;;2.10;;
3841;SDS011;1936;47.074;15.336;2024-02-28T10:41:57;7.83;;;3.07;;
3841;SDS011;1936;47.074;15.336;2024-02-28T10:44:02;7.60;;;3.50;;
3841;SDS011;1936;47.074;15.336;2024-02-28T10:46:06;3.17;;;2.87;;
3841;SDS011;1936;47.074;15.336;2024-02-28T10:48:31;5.67;;;2.83;;
3841;SDS011;1936;47.074;15.336;2024-02-28T10:50:35;4.37;;;2.83;;
3841;SDS011;1936;47.074;15.336;2024-02-28T10:52:39;5.40;;;2.97;;
3841;SDS011;1936;47.074;15.336;2024-02-28T10:54:45;4.57;;;2.90;;
3841;SDS011;1936;47.074;15.336;2024-02-28T10:56:55;3.60;;;3.30;;
3841;SDS011;1936;47.074;15.336;2024-02-28T10:58:59;4.03;;;2.20;;
3841;SDS011;1936;47.074;15.336;2024-02-28T11:01:02;4.33;;;2.90;;
3841;SDS011;1936;47.074;15.336;2024-02-28T11:03:07;4.47;;;2.53;;
3841;SDS011;1936;47.074;15.336;2024-02-28T11:05:12;5.50;;;2.83;;
3841;SDS011;1936;47.074;15.336;2024-02-28T11:07:19;5.73;;;2.90;;
3841;SDS011;1936;47.074;15.336;2024-02-28T11:09:24;6.30;;;3.37;;
3841;SDS011;1936;47.074;15.336;2024-02-28T11:11:31;7.40;;;3.17;;
3841;SDS011;1936;47.074;15.336;2024-02-28T11:13:35;5.63;;;2.90;;
3841;SDS011;1936;47.074;15.336;2024-02-28T11:15:39;4.10;;;2.70;;
3841;SDS011;1936;47.074;15.336;2024-02-28T11:17:42;5.83;;;3.40;;
3841;SDS011;1936;47.074;15.336;2024-02-28T11:19:44;9.20;;;3.47;;
3841;SDS011;1936;47.074;15.336;2024-02-28T11:21:51;6.33;;;3.30;;
3841;SDS011;1936;47.074;15.336;2024-02-28T11:23:59;6.17;;;4.47;;
3841;SDS011;1936;47.074;15.336;2024-02-28T11:26:05;8.73;;;3.60;;
3841;SDS011;1936;47.074;15.336;2024-02-28T11:28:07;9.03;;;3.97;;
3841;SDS011;1936;47.074;15.336;2024-02-28T11:30:13;6.30;;;3.80;;
3841;SDS011;1936;47.074;15.336;2024-02-28T11:32:17;8.07;;;4.20;;
3841;SDS011;1936;47.074;15.336;2024-02-28T11:34:21;7.03;;;4.03;;
3841;SDS011;1936;47.074;15.336;2024-02-28T11:36:24;13.67;;;5.10;;
3841;SDS011;1936;47.074;15.336;2024-02-28T11:38:28;8.87;;;4.80;;
3841;SDS011;1936;47.074;15.336;2024-02-28T11:40:30;8.07;;;4.80;;
3841;SDS011;1936;47.074;15.336;2024-02-28T11:42:34;5.63;;;4.03;;
3841;SDS011;1936;47.074;15.336;2024-02-28T11:44:37;6.10;;;4.00;;
3841;SDS011;1936;47.074;15.336;2024-02-28T11:46:45;7.00;;;4.30;;
3841;SDS011;1936;47.074;15.336;2024-02-28T11:48:49;7.00;;;4.20;;
3841;SDS011;1936;47.074;15.336;2024-02-28T11:50:51;11.93;;;4.43;;
3841;SDS011;1936;47.074;15.336;2024-02-28T11:52:55;7.63;;;4.13;;
3841;SDS011;1936;47.074;15.336;2024-02-28T11:54:58;11.23;;;6.03;;
3841;SDS011;1936;47.074;15.336;2024-02-28T11:57:02;9.70;;;4.77;;
3841;SDS011;1936;47.074;15.336;2024-02-28T11:59:05;14.37;;;4.70;;
3841;SDS011;1936;47.074;15.336;2024-02-28T12:01:09;7.07;;;4.73;;
3841;SDS011;1936;47.074;15.336;2024-02-28T12:03:14;12.10;;;4.00;;
3841;SDS011;1936;47.074;15.336;2024-02-28T12:05:22;9.67;;;3.87;;
3841;SDS011;1936;47.074;15.336;2024-02-28T12:07:25;10.67;;;4.97;;
3841;SDS011;1936;47.074;15.336;2024-02-28T12:09:29;7.23;;;3.50;;
3841;SDS011;1936;47.074;15.336;2024-02-28T12:11:43;9.70;;;4.50;;
3841;SDS011;1936;47.074;15.336;2024-02-28T12:13:46;6.13;;;4.50;;
3841;SDS011;1936;47.074;15.336;2024-02-28T12:15:51;7.80;;;3.97;;
3841;SDS011;1936;47.074;15.336;2024-02-28T12:17:54;6.87;;;3.90;;
3841;SDS011;1936;47.074;15.336;2024-02-28T12:20:01;9.33;;;4.00;;
3841;SDS011;1936;47.074;15.336;2024-02-28T12:22:04;8.40;;;3.97;;
3841;SDS011;1936;47.074;15.336;2024-02-28T12:24:09;6.10;;;3.10;;
3841;SDS011;1936;47.074;15.336;2024-02-28T12:26:13;7.70;;;3.40;;
3841;SDS011;1936;47.074;15.336;2024-02-28T12:28:15;9.17;;;2.70;;
3841;SDS011;1936;47.074;15.336;2024-02-28T12:30:19;7.60;;;4.37;;
3841;SDS011;1936;47.074;15.336;2024-02-28T12:32:22;9.07;;;4.00;;
3841;SDS011;1936;47.074;15.336;2024-02-28T12:34:26;9.80;;;5.30;;
3841;SDS011;1936;47.074;15.336;2024-02-28T12:36:30;15.90;;;3.63;;